Time;durP1;ratioP1;P1;durP2;ratioP2;P2;SDS_P1;SDS_P2;PMS_P1;PMS_P2;Temp;Humidity;BMP_temperature;BMP_pressure;BME280_temperature;BME280_humidity;BME280_pressure;Samples;Min_cycle;Max_cycle;Signal;HPM_P1;HPM_P2
2023/08/31 00:00:16;;;;;;;8.32;2.78;;;;;;;17.49;59.86;100645.94;5053976;28;20056;-62
2023/08/31 00:02:44;;;;;;;12.75;3.05;;;;;;;17.45;59.94;100644.22;5052064;28;20053;-62
2023/08/31 00:05:11;;;;;;;11.23;3.40;;;;;;;17.10;61.06;100652.50;5052519;28;20056;-62
2023/08/31 00:07:38;;;;;;;12.70;3.33;;;;;;;17.37;61.15;100654.34;5052429;28;20059;-62
2023/08/31 00:10:09;;;;;;;11.90;3.17;;;;;;;17.25;61.30;100656.41;5053702;28;20051;-62
2023/08/31 00:12:37;;;;;;;14.40;3.20;;;;;;;17.33;61.58;100669.38;5049512;28;20436;-62
2023/08/31 00:15:05;;;;;;;12.57;2.97;;;;;;;17.35;60.91;100664.22;5048521;28;20055;-62
2023/08/31 00:17:32;;;;;;;11.48;2.88;;;;;;;17.63;61.30;100665.78;5053225;28;20639;-62
2023/08/31 00:20:00;;;;;;;11.35;3.15;;;;;;;17.66;60.66;100665.03;5053337;28;20052;-63
2023/08/31 00:22:28;;;;;;;10.07;2.88;;;;;;;17.56;60.07;100660.03;5035390;28;20049;-63
2023/08/31 00:24:55;;;;;;;9.18;2.97;;;;;;;17.60;59.90;100660.94;5057437;28;20051;-62
2023/08/31 00:27:23;;;;;;;12.88;3.28;;;;;;;17.62;60.16;100661.38;5051961;28;20045;-62
2023/08/31 00:29:50;;;;;;;9.93;2.95;;;;;;;17.66;60.47;100655.91;5034490;28;20056;-63
2023/08/31 00:32:18;;;;;;;12.10;3.17;;;;;;;17.73;59.94;100656.06;5053561;28;20041;-62
2023/08/31 00:34:45;;;;;;;12.25;3.20;;;;;;;17.65;60.67;100654.25;5051699;28;20420;-63
2023/08/31 00:37:13;;;;;;;8.15;2.70;;;;;;;17.63;59.91;100651.03;5051494;28;20067;-62
2023/08/31 00:39:41;;;;;;;12.38;2.92;;;;;;;17.44;60.25;100643.41;5052891;28;20057;-63
2023/08/31 00:42:08;;;;;;;12.05;2.60;;;;;;;17.44;60.29;100640.59;5052274;28;20131;-62
2023/08/31 00:44:36;;;;;;;13.70;2.47;;;;;;;17.63;60.08;100640.69;5051627;28;20496;-62
2023/08/31 00:47:04;;;;;;;12.95;2.85;;;;;;;17.58;60.61;100640.97;5051931;28;20064;-62
2023/08/31 00:49:33;;;;;;;9.32;3.30;;;;;;;17.68;60.72;100653.53;5053236;28;20187;-65
2023/08/31 00:52:00;;;;;;;18.50;2.83;;;;;;;17.77;60.74;100641.03;5052048;28;20049;-62
2023/08/31 00:54:29;;;;;;;11.13;2.72;;;;;;;17.71;60.18;100636.13;5030927;28;20050;-62
2023/08/31 00:56:57;;;;;;;9.88;2.50;;;;;;;17.61;60.20;100633.88;5031633;28;20064;-61
2023/08/31 00:59:26;;;;;;;10.38;2.58;;;;;;;17.63;60.39;100637.91;5032977;28;20045;-62
2023/08/31 01:02:01;;;;;;;16.58;3.40;;;;;;;17.53;60.48;100641.25;5037496;28;20041;-62
2023/08/31 01:04:46;;;;;;;9.27;2.90;;;;;;;17.58;60.49;100632.63;5050679;28;20049;-62
2023/08/31 01:07:41;;;;;;;11.45;2.80;;;;;;;17.57;60.85;100636.56;5035322;28;20044;-62
2023/08/31 01:10:12;;;;;;;10.57;2.95;;;;;;;17.61;60.35;100640.25;5050588;28;20063;-62
2023/08/31 01:12:40;;;;;;;13.23;3.33;;;;;;;17.45;61.47;100639.44;5051501;28;20694;-62
2023/08/31 01:15:11;;;;;;;11.68;2.55;;;;;;;17.70;60.75;100637.25;5050293;28;20053;-63
2023/08/31 01:17:47;;;;;;;10.93;2.67;;;;;;;17.73;60.20;100639.34;5052779;28;20045;-62
2023/08/31 01:20:20;;;;;;;13.35;3.08;;;;;;;17.70;60.44;100646.44;5026884;28;20049;-62
2023/08/31 01:23:04;;;;;;;13.82;3.45;;;;;;;17.72;59.95;100646.88;5030927;28;20049;-63
2023/08/31 01:25:32;;;;;;;15.63;3.28;;;;;;;17.64;61.39;100655.44;5039997;28;20084;-63
2023/08/31 01:28:00;;;;;;;11.38;2.45;;;;;;;17.36;60.95;100652.75;5033093;28;20049;-62
2023/08/31 01:30:31;;;;;;;9.25;2.63;;;;;;;17.53;62.15;100657.97;5053854;28;20048;-62
2023/08/31 01:32:58;;;;;;;12.23;2.75;;;;;;;17.28;61.38;100652.91;5052276;28;20099;-60
2023/08/31 01:35:26;;;;;;;11.15;3.10;;;;;;;17.28;61.80;100659.28;5050926;28;20063;-62
2023/08/31 01:37:57;;;;;;;11.48;3.00;;;;;;;17.68;61.36;100653.53;5046656;28;20056;-62
2023/08/31 01:40:43;;;;;;;11.57;3.17;;;;;;;17.50;61.04;100650.34;5052288;28;20417;-62
2023/08/31 01:43:11;;;;;;;10.55;2.50;;;;;;;17.61;61.04;100659.75;5031036;28;20061;-62
2023/08/31 01:45:40;;;;;;;12.70;2.70;;;;;;;17.80;60.62;100653.44;5029754;28;20418;-63
2023/08/31 01:48:07;;;;;;;10.35;2.85;;;;;;;17.82;60.36;100663.03;5014199;28;20433;-62
2023/08/31 01:50:36;;;;;;;11.20;3.40;;;;;;;17.85;60.85;100647.59;5043191;28;20063;-62
2023/08/31 01:53:04;;;;;;;12.32;2.78;;;;;;;17.81;60.68;100652.25;5052075;28;20472;-63
2023/08/31 01:55:31;;;;;;;15.55;3.58;;;;;;;17.80;60.87;100650.66;5047192;28;20037;-62
2023/08/31 01:58:00;;;;;;;13.15;3.00;;;;;;;17.81;61.46;100653.06;5041497;28;20072;-62
2023/08/31 02:00:28;;;;;;;9.48;2.67;;;;;;;17.91;60.84;100651.69;5030661;28;20276;-62
2023/08/31 02:02:56;;;;;;;13.15;2.75;;;;;;;17.91;60.37;100651.69;5048394;28;20053;-62
2023/08/31 02:05:24;;;;;;;9.75;2.92;;;;;;;17.93;60.69;100647.38;5050803;28;20148;-62
2023/08/31 02:07:53;;;;;;;9.40;2.80;;;;;;;17.92;60.88;100654.09;5052110;28;20045;-62
2023/08/31 02:10:20;;;;;;;10.38;2.88;;;;;;;17.89;60.16;100648.44;5049407;28;20049;-62
2023/08/31 02:12:47;;;;;;;10.73;2.83;;;;;;;17.94;60.13;100648.97;5047540;28;20072;-61
2023/08/31 02:15:15;;;;;;;13.00;2.97;;;;;;;17.89;59.89;100652.06;5051602;28;20056;-62
2023/08/31 02:17:43;;;;;;;10.32;2.58;;;;;;;17.94;60.20;100648.97;5050434;28;20044;-62
2023/08/31 02:20:11;;;;;;;10.65;2.38;;;;;;;17.95;59.54;100645.03;5033071;28;20512;-63
2023/08/31 02:22:38;;;;;;;9.43;2.45;;;;;;;18.05;60.11;100648.41;5049814;28;20049;-62
2023/08/31 02:25:06;;;;;;;9.70;3.05;;;;;;;17.86;59.74;100641.63;5056917;28;20052;-63
2023/08/31 02:27:33;;;;;;;10.80;2.50;;;;;;;17.89;60.34;100645.66;5049848;28;20060;-62
2023/08/31 02:30:03;;;;;;;11.25;2.40;;;;;;;18.10;60.37;100648.13;5049595;28;20049;-62
2023/08/31 02:32:30;;;;;;;12.32;2.70;;;;;;;17.95;59.86;100641.44;5050331;28;20052;-61
2023/08/31 02:34:58;;;;;;;8.00;2.33;;;;;;;17.72;60.73;100632.13;5051181;28;20531;-62
2023/08/31 02:37:26;;;;;;;12.25;3.00;;;;;;;17.80;60.13;100639.50;5032612;28;20131;-61
2023/08/31 02:39:54;;;;;;;10.48;2.75;;;;;;;17.89;61.03;100651.22;5050720;28;20499;-63
2023/08/31 02:42:21;;;;;;;14.90;2.92;;;;;;;17.80;61.46;100654.22;5049766;28;20527;-62
2023/08/31 02:44:52;;;;;;;10.63;2.80;;;;;;;17.61;61.43;100645.81;5049688;28;20055;-62
2023/08/31 02:47:19;;;;;;;10.48;2.55;;;;;;;17.72;62.04;100646.88;5049523;28;20357;-64
2023/08/31 02:49:47;;;;;;;9.02;2.50;;;;;;;17.70;62.04;100660.38;5053789;28;20049;-62
2023/08/31 02:52:15;;;;;;;8.75;2.50;;;;;;;17.70;61.58;100656.75;5054833;28;20057;-62
2023/08/31 02:54:45;;;;;;;17.88;2.90;;;;;;;17.80;61.40;100657.00;5055728;28;20052;-62
2023/08/31 02:57:13;;;;;;;12.60;2.15;;;;;;;17.86;62.00;100649.19;5053761;28;20579;-62
2023/08/31 02:59:42;;;;;;;12.75;2.47;;;;;;;17.76;61.93;100653.34;5038838;28;20436;-62
2023/08/31 03:02:10;;;;;;;11.02;2.50;;;;;;;17.88;61.82;100649.63;5052948;28;20060;-61
2023/08/31 03:04:37;;;;;;;10.35;2.60;;;;;;;17.79;61.85;100651.81;5050914;28;20052;-63
2023/08/31 03:07:05;;;;;;;13.63;3.13;;;;;;;17.68;61.81;100651.56;5050399;28;20103;-62
2023/08/31 03:09:32;;;;;;;6.95;2.40;;;;;;;17.71;61.30;100655.63;5054942;28;20049;-61
2023/08/31 03:12:00;;;;;;;12.15;2.72;;;;;;;17.57;61.73;100644.13;5053479;28;20053;-62
2023/08/31 03:14:29;;;;;;;10.68;3.20;;;;;;;17.72;61.20;100646.88;5052604;28;20052;-63
2023/08/31 03:16:56;;;;;;;9.73;2.92;;;;;;;17.66;61.56;100647.53;5053552;28;20562;-61
2023/08/31 03:19:24;;;;;;;11.45;2.97;;;;;;;17.49;61.40;100645.94;5054561;28;20049;-62
2023/08/31 03:21:52;;;;;;;11.32;3.03;;;;;;;17.49;61.69;100648.72;5049554;28;20539;-62
2023/08/31 03:24:20;;;;;;;14.07;3.78;;;;;;;17.38;62.04;100639.25;5056130;28;20693;-62
2023/08/31 03:26:48;;;;;;;14.68;3.03;;;;;;;17.40;61.99;100644.50;5034655;28;20053;-60
2023/08/31 03:29:15;;;;;;;8.40;2.38;;;;;;;17.40;62.21;100639.72;5034315;28;20058;-62
2023/08/31 03:31:42;;;;;;;9.35;2.58;;;;;;;17.29;62.23;100632.28;5052289;28;20048;-61
2023/08/31 03:34:10;;;;;;;14.07;2.90;;;;;;;17.34;63.61;100638.38;5036118;28;20057;-61
2023/08/31 03:36:38;;;;;;;13.70;2.67;;;;;;;17.64;62.72;100633.16;5054399;28;20049;-61
2023/08/31 03:39:06;;;;;;;11.07;2.72;;;;;;;17.28;62.44;100634.25;5049559;28;20044;-61
2023/08/31 03:41:35;;;;;;;9.05;2.45;;;;;;;17.33;62.99;100631.19;5052567;28;20053;-62
2023/08/31 03:44:03;;;;;;;10.18;2.72;;;;;;;17.30;63.14;100619.94;5032774;28;20057;-61
2023/08/31 03:46:30;;;;;;;11.00;2.65;;;;;;;17.40;62.98;100636.13;5033273;28;20045;-61
2023/08/31 03:48:59;;;;;;;11.85;2.90;;;;;;;17.45;63.16;100636.66;5033100;28;20079;-60
2023/08/31 03:51:26;;;;;;;16.67;3.15;;;;;;;17.18;63.17;100629.22;5045737;28;20057;-62
2023/08/31 03:53:54;;;;;;;13.48;3.20;;;;;;;17.17;63.47;100638.75;5049972;28;20053;-62
2023/08/31 03:56:23;;;;;;;13.20;3.03;;;;;;;17.10;63.72;100638.56;5052670;28;20048;-61
2023/08/31 03:58:50;;;;;;;13.40;2.70;;;;;;;17.27;64.21;100641.00;5051344;28;20045;-61
2023/08/31 04:01:17;;;;;;;12.35;2.83;;;;;;;17.47;63.87;100631.56;5051927;28;20060;-62
2023/08/31 04:03:45;;;;;;;9.05;2.65;;;;;;;17.11;63.99;100648.53;5048384;28;20072;-61
2023/08/31 04:06:13;;;;;;;11.55;3.08;;;;;;;17.40;64.46;100642.50;5050981;28;20056;-62
2023/08/31 04:08:40;;;;;;;14.23;3.17;;;;;;;17.28;65.23;100648.16;5052235;28;20416;-62
2023/08/31 04:11:08;;;;;;;16.80;3.47;;;;;;;17.13;65.51;100648.97;5047735;28;20045;-61
2023/08/31 04:13:35;;;;;;;11.75;2.45;;;;;;;17.19;65.50;100655.09;5052064;28;20581;-65
2023/08/31 04:16:03;;;;;;;13.45;3.20;;;;;;;16.86;65.81;100647.88;5053323;28;20061;-61
2023/08/31 04:18:30;;;;;;;18.85;3.75;;;;;;;16.76;66.16;100651.19;5051868;28;20049;-61
2023/08/31 04:20:59;;;;;;;14.63;3.35;;;;;;;16.80;66.48;100649.31;5053235;28;20045;-61
2023/08/31 04:23:26;;;;;;;11.13;2.83;;;;;;;16.96;66.26;100641.00;5037598;28;20045;-61
2023/08/31 04:25:54;;;;;;;12.13;3.08;;;;;;;16.88;66.20;100652.28;5055347;28;20476;-61
2023/08/31 04:28:21;;;;;;;10.05;2.72;;;;;;;17.16;66.47;100645.47;5038335;28;20060;-61
2023/08/31 04:30:49;;;;;;;12.60;3.00;;;;;;;17.10;65.95;100644.13;5026264;28;20053;-61
2023/08/31 04:33:17;;;;;;;16.67;3.20;;;;;;;17.17;66.08;100649.06;5053473;28;20127;-61
2023/08/31 04:35:44;;;;;;;14.95;3.30;;;;;;;17.08;65.78;100649.25;5051239;28;20056;-61
2023/08/31 04:38:12;;;;;;;12.18;3.22;;;;;;;16.82;66.59;100654.53;5052920;28;20052;-62
2023/08/31 04:40:39;;;;;;;14.13;3.22;;;;;;;16.93;66.56;100650.03;5052066;28;20057;-61
2023/08/31 04:43:06;;;;;;;11.25;3.40;;;;;;;17.06;66.73;100657.16;5050402;28;20055;-64
2023/08/31 04:45:34;;;;;;;14.68;3.40;;;;;;;17.12;65.72;100654.91;5051891;28;20848;-65
2023/08/31 04:48:01;;;;;;;12.93;2.95;;;;;;;17.13;66.01;100660.13;5052846;28;20041;-66
2023/08/31 04:50:29;;;;;;;10.45;2.60;;;;;;;17.16;66.04;100659.38;5052726;28;20052;-65
2023/08/31 04:52:56;;;;;;;11.38;3.28;;;;;;;17.01;65.39;100665.75;5051591;28;20048;-65
2023/08/31 04:55:25;;;;;;;12.15;3.28;;;;;;;17.18;66.01;100653.47;5052968;28;20503;-65
2023/08/31 04:57:52;;;;;;;17.08;3.83;;;;;;;16.82;66.08;100666.44;5068203;28;20497;-66
2023/08/31 05:00:20;;;;;;;12.13;3.00;;;;;;;16.86;65.84;100664.56;5050529;28;20049;-66
2023/08/31 05:02:47;;;;;;;9.50;2.75;;;;;;;16.93;65.83;100674.28;5031413;28;20049;-67
2023/08/31 05:05:14;;;;;;;10.45;2.83;;;;;;;17.09;65.38;100663.94;5051119;28;20115;-65
2023/08/31 05:07:43;;;;;;;9.98;3.10;;;;;;;17.24;65.81;100669.56;5051133;28;20060;-64
2023/08/31 05:10:11;;;;;;;13.32;3.08;;;;;;;17.13;65.10;100662.91;5050580;28;20045;-63
2023/08/31 05:12:38;;;;;;;13.43;3.00;;;;;;;17.01;65.60;100671.31;5052827;28;20690;-62
2023/08/31 05:15:06;;;;;;;10.05;2.88;;;;;;;17.21;65.08;100664.69;5048493;28;20041;-62
2023/08/31 05:17:34;;;;;;;12.30;2.90;;;;;;;16.81;65.14;100666.78;5050779;28;20053;-64
2023/08/31 05:20:03;;;;;;;10.70;3.00;;;;;;;16.57;66.33;100667.75;5050851;28;20067;-66
2023/08/31 05:22:31;;;;;;;13.98;3.08;;;;;;;16.67;66.55;100670.00;5050546;28;20057;-66
2023/08/31 05:24:58;;;;;;;14.05;3.40;;;;;;;16.68;66.14;100676.38;5058254;28;20049;-65
2023/08/31 05:27:26;;;;;;;13.65;2.88;;;;;;;16.91;66.65;100674.66;5063151;28;20547;-65
2023/08/31 05:29:54;;;;;;;14.95;3.60;;;;;;;16.98;66.22;100685.16;5034370;28;20049;-65
2023/08/31 05:32:21;;;;;;;11.48;2.92;;;;;;;16.98;65.70;100683.16;5046515;28;20060;-66
2023/08/31 05:34:49;;;;;;;9.85;3.00;;;;;;;17.05;66.25;100685.34;5051406;28;20057;-66
2023/08/31 05:37:16;;;;;;;11.10;3.08;;;;;;;17.12;65.79;100680.75;5051138;28;20052;-66
2023/08/31 05:39:48;;;;;;;10.65;3.10;;;;;;;17.04;65.44;100683.69;5052379;28;20052;-67
2023/08/31 05:42:18;;;;;;;10.48;2.60;;;;;;;17.00;65.72;100680.81;5050993;28;20460;-66
2023/08/31 05:44:46;;;;;;;10.90;3.20;;;;;;;16.92;65.73;100681.81;5052062;28;20041;-66
2023/08/31 05:47:13;;;;;;;10.13;2.65;;;;;;;17.05;65.80;100691.69;5046722;28;20626;-64
2023/08/31 05:49:40;;;;;;;10.68;3.15;;;;;;;17.16;65.91;100686.41;5052345;28;20048;-62
2023/08/31 05:52:08;;;;;;;13.25;3.40;;;;;;;17.09;65.54;100689.00;5052002;28;20056;-62
2023/08/31 05:54:36;;;;;;;12.98;3.70;;;;;;;17.07;65.97;100688.56;5052144;28;20053;-61
2023/08/31 05:57:05;;;;;;;10.75;3.38;;;;;;;17.25;65.50;100698.19;5051480;28;20053;-61
2023/08/31 05:59:32;;;;;;;17.60;3.15;;;;;;;17.18;65.46;100698.81;5050637;28;20045;-62
2023/08/31 06:02:03;;;;;;;15.73;3.10;;;;;;;17.38;65.75;100696.94;5033840;28;20056;-62
2023/08/31 06:04:31;;;;;;;15.80;2.90;;;;;;;17.38;65.49;100702.50;5047828;28;20060;-62
2023/08/31 06:06:58;;;;;;;13.80;3.22;;;;;;;17.26;65.80;100695.03;5050433;28;20448;-62
2023/08/31 06:09:25;;;;;;;14.77;3.60;;;;;;;17.32;65.52;100701.16;5051703;28;20049;-62
2023/08/31 06:11:53;;;;;;;15.73;3.30;;;;;;;17.37;65.13;100707.25;5049073;28;20056;-62
2023/08/31 06:14:20;;;;;;;14.23;3.42;;;;;;;17.45;65.35;100706.25;5051108;28;20527;-61
2023/08/31 06:16:47;;;;;;;15.02;3.30;;;;;;;17.48;64.82;100707.56;5066764;28;20132;-62
2023/08/31 06:19:15;;;;;;;11.70;3.30;;;;;;;17.49;64.70;100709.16;5047665;28;20060;-63
2023/08/31 06:21:42;;;;;;;13.30;3.17;;;;;;;17.67;64.62;100714.03;5034224;28;20049;-63
2023/08/31 06:24:12;;;;;;;14.48;3.10;;;;;;;17.75;64.12;100704.66;5046568;28;20040;-62
2023/08/31 06:26:40;;;;;;;9.40;2.70;;;;;;;17.62;64.87;100707.91;5055765;28;20057;-62
2023/08/31 06:29:10;;;;;;;18.20;3.50;;;;;;;17.67;64.15;100705.66;5059861;28;20052;-62
2023/08/31 06:31:38;;;;;;;14.43;3.00;;;;;;;17.75;64.02;100701.88;5048770;28;20049;-62
2023/08/31 06:34:05;;;;;;;18.48;3.95;;;;;;;17.70;65.13;100707.72;5025730;28;20045;-61
2023/08/31 06:36:33;;;;;;;11.98;3.47;;;;;;;17.86;64.48;100707.69;5047556;28;20049;-63
2023/08/31 06:39:01;;;;;;;11.25;3.20;;;;;;;18.17;65.13;100702.03;5051921;28;20722;-62
2023/08/31 06:41:28;;;;;;;17.08;2.85;;;;;;;18.29;63.68;100715.84;5048284;28;20048;-61
2023/08/31 06:43:55;;;;;;;11.85;3.00;;;;;;;18.27;62.86;100715.41;5051488;28;20519;-61
2023/08/31 06:46:23;;;;;;;12.55;2.75;;;;;;;18.40;61.93;100713.31;5046184;28;20071;-60
2023/08/31 06:48:52;;;;;;;12.35;3.33;;;;;;;18.53;61.97;100712.81;5041276;28;20037;-60
2023/08/31 06:51:19;;;;;;;16.55;3.28;;;;;;;18.63;61.38;100720.63;5044731;28;20455;-60
2023/08/31 06:53:50;;;;;;;17.80;3.22;;;;;;;18.53;61.43;100712.03;5034097;28;20056;-60
2023/08/31 06:56:18;;;;;;;22.45;3.83;;;;;;;18.46;61.43;100723.81;5038869;28;20045;-60
2023/08/31 06:58:46;;;;;;;15.15;3.50;;;;;;;18.60;61.41;100718.53;5044387;28;20064;-59
2023/08/31 07:01:13;;;;;;;12.30;2.78;;;;;;;18.67;61.16;100727.06;5041591;28;20522;-60
2023/08/31 07:03:40;;;;;;;15.55;3.45;;;;;;;18.53;60.78;100723.97;5044301;28;20071;-60
2023/08/31 07:06:08;;;;;;;12.20;3.20;;;;;;;18.49;61.29;100716.72;5044242;28;20388;-61
2023/08/31 07:08:37;;;;;;;14.43;3.35;;;;;;;18.47;61.38;100722.66;5041877;28;20045;-62
2023/08/31 07:11:04;;;;;;;10.65;3.38;;;;;;;18.69;61.07;100726.72;5042691;28;20698;-62
2023/08/31 07:13:32;;;;;;;12.63;3.20;;;;;;;18.34;61.73;100721.13;5037144;28;20048;-62
2023/08/31 07:15:59;;;;;;;18.50;3.80;;;;;;;18.32;62.08;100731.06;5043592;28;20057;-63
2023/08/31 07:18:27;;;;;;;18.70;4.03;;;;;;;18.47;61.59;100731.03;5045688;28;20044;-62
2023/08/31 07:20:54;;;;;;;14.55;4.13;;;;;;;18.32;62.09;100729.09;5041816;28;20049;-62
2023/08/31 07:23:22;;;;;;;17.05;4.00;;;;;;;18.37;61.92;100730.78;5042935;28;20045;-64
2023/08/31 07:25:49;;;;;;;17.40;3.55;;;;;;;18.30;61.73;100731.44;5042067;28;20045;-63
2023/08/31 07:28:17;;;;;;;24.67;3.90;;;;;;;18.34;61.82;100739.88;5025668;28;20050;-62
2023/08/31 07:30:45;;;;;;;14.68;3.80;;;;;;;18.38;62.05;100735.97;5043306;28;20048;-63
2023/08/31 07:33:12;;;;;;;14.98;3.60;;;;;;;18.37;61.19;100747.50;5025073;28;20053;-63
2023/08/31 07:35:56;;;;;;;13.43;3.28;;;;;;;18.37;61.13;100742.75;5043844;28;20055;-66
2023/08/31 07:38:26;;;;;;;11.50;3.25;;;;;;;18.19;61.73;100749.06;5043414;28;20049;-63
2023/08/31 07:40:53;;;;;;;17.13;3.63;;;;;;;18.34;61.34;100748.25;5045576;28;20472;-63
2023/08/31 07:43:21;;;;;;;13.38;3.17;;;;;;;18.60;61.09;100754.81;5040642;28;20056;-64
2023/08/31 07:45:49;;;;;;;12.02;2.92;;;;;;;18.40;61.17;100753.19;5043530;28;20057;-64
2023/08/31 07:48:16;;;;;;;11.43;3.45;;;;;;;18.46;61.76;100753.72;5043562;28;20045;-63
2023/08/31 07:50:43;;;;;;;14.85;3.58;;;;;;;18.34;61.80;100757.41;5044774;28;20059;-64
2023/08/31 07:53:11;;;;;;;14.63;3.05;;;;;;;18.52;61.14;100755.84;5046283;28;20048;-63
2023/08/31 07:55:39;;;;;;;14.25;3.30;;;;;;;18.27;61.25;100762.03;5043965;28;20064;-64
2023/08/31 07:58:07;;;;;;;14.43;3.20;;;;;;;18.49;61.33;100752.97;5045980;28;20056;-64
2023/08/31 08:00:34;;;;;;;14.32;3.88;;;;;;;18.54;61.30;100759.09;5042833;28;20048;-64
2023/08/31 08:03:02;;;;;;;16.75;4.15;;;;;;;18.81;60.64;100766.44;5043175;28;21457;-63
2023/08/31 08:05:30;;;;;;;12.90;3.72;;;;;;;18.80;61.07;100764.81;5044443;28;20049;-64
2023/08/31 08:07:57;;;;;;;15.82;4.22;;;;;;;19.13;60.27;100764.28;5043699;28;20049;-63
2023/08/31 08:10:25;;;;;;;12.93;3.78;;;;;;;19.01;59.86;100756.06;5062795;28;20813;-63
2023/08/31 08:12:52;;;;;;;17.05;3.50;;;;;;;19.28;59.47;100762.56;5039875;28;20418;-63
2023/08/31 08:15:19;;;;;;;11.15;3.28;;;;;;;19.38;58.49;100756.41;5023450;28;20056;-64
2023/08/31 08:17:48;;;;;;;10.15;3.33;;;;;;;19.26;58.68;100760.16;5043083;28;20045;-63
2023/08/31 08:20:15;;;;;;;14.60;3.28;;;;;;;19.14;58.04;100762.31;5040034;28;20046;-63
2023/08/31 08:22:44;;;;;;;14.90;3.80;;;;;;;19.13;58.41;100760.66;5042862;28;20052;-64
2023/08/31 08:25:12;;;;;;;14.25;3.53;;;;;;;19.25;57.69;100758.53;5039010;28;20056;-63
2023/08/31 08:27:39;;;;;;;11.90;3.10;;;;;;;19.06;57.48;100759.38;5044796;28;20128;-64
2023/08/31 08:30:07;;;;;;;13.15;2.97;;;;;;;19.20;58.22;100760.81;5044290;28;20527;-63
2023/08/31 08:32:34;;;;;;;13.73;3.10;;;;;;;19.35;57.95;100760.75;5042139;28;20048;-63
2023/08/31 08:35:02;;;;;;;15.13;3.33;;;;;;;19.42;57.70;100752.47;5046020;28;20045;-63
2023/08/31 08:37:32;;;;;;;14.18;3.15;;;;;;;19.43;57.73;100747.72;5039752;28;20045;-62
2023/08/31 08:40:01;;;;;;;13.07;3.28;;;;;;;19.35;56.39;100749.59;5041511;28;20060;-64
2023/08/31 08:42:30;;;;;;;10.43;3.25;;;;;;;19.58;56.62;100755.97;5041895;28;20431;-63
2023/08/31 08:44:57;;;;;;;11.40;3.13;;;;;;;19.71;55.94;100763.00;5038477;28;20683;-62
2023/08/31 08:47:27;;;;;;;16.25;3.50;;;;;;;19.71;55.11;100756.59;5045509;28;20044;-64
2023/08/31 08:49:55;;;;;;;12.80;3.00;;;;;;;19.57;55.41;100767.53;5041895;28;20045;-63
2023/08/31 08:52:23;;;;;;;15.00;3.05;;;;;;;19.57;55.39;100759.94;5025038;28;20057;-63
2023/08/31 08:54:50;;;;;;;13.85;3.28;;;;;;;19.65;55.67;100764.47;5036584;28;20040;-63
2023/08/31 08:57:18;;;;;;;12.85;2.97;;;;;;;19.50;55.78;100767.38;5028777;28;20053;-64
2023/08/31 08:59:45;;;;;;;13.80;3.40;;;;;;;19.75;55.58;100763.84;5041011;28;20149;-63
2023/08/31 09:02:12;;;;;;;16.23;3.40;;;;;;;19.84;55.48;100772.78;5042021;28;20052;-63
2023/08/31 09:04:40;;;;;;;13.35;3.20;;;;;;;20.15;54.63;100769.69;5040165;28;20052;-63
2023/08/31 09:07:08;;;;;;;13.48;4.65;;;;;;;19.85;55.19;100773.59;5038822;28;20067;-62
2023/08/31 09:09:50;;;;;;;16.73;3.88;;;;;;;19.90;55.55;100767.69;5041147;28;20056;-63
2023/08/31 09:12:18;;;;;;;13.88;3.50;;;;;;;19.89;55.25;100764.06;5044796;28;20049;-63
2023/08/31 09:15:00;;;;;;;13.90;3.35;;;;;;;19.82;55.82;100772.34;5043207;28;20052;-64
2023/08/31 09:17:38;;;;;;;13.88;3.60;;;;;;;19.91;56.11;100760.94;5026897;28;20060;-65
2023/08/31 09:20:06;;;;;;;14.25;3.53;;;;;;;19.85;56.77;100760.44;5041832;28;20072;-64
2023/08/31 09:22:34;;;;;;;16.80;3.63;;;;;;;19.94;57.22;100763.78;5043815;28;20048;-63
2023/08/31 09:25:03;;;;;;;13.45;3.80;;;;;;;20.08;57.45;100772.38;5041295;28;20049;-63
2023/08/31 09:27:38;;;;;;;12.95;3.33;;;;;;;20.18;57.40;100773.75;5040432;28;20519;-64
2023/08/31 09:30:08;;;;;;;16.95;3.72;;;;;;;20.19;57.28;100774.56;5025889;28;20674;-63
2023/08/31 09:32:37;;;;;;;12.38;3.40;;;;;;;20.33;56.80;100766.41;5038417;28;20523;-63
2023/08/31 09:35:08;;;;;;;12.27;3.67;;;;;;;20.40;55.81;100758.09;5043087;28;20128;-63
2023/08/31 09:37:57;;;;;;;12.40;3.40;;;;;;;20.44;55.80;100750.53;5042353;28;20053;-64
2023/08/31 09:40:24;;;;;;;10.63;3.13;;;;;;;20.55;54.53;100745.91;5038183;28;20681;-64
2023/08/31 09:42:52;;;;;;;20.83;3.83;;;;;;;20.60;55.36;100742.78;5020997;28;20049;-64
2023/08/31 09:45:30;;;;;;;23.20;4.35;;;;;;;20.64;55.59;100746.44;5041899;28;20523;-63
2023/08/31 09:48:11;;;;;;;14.65;4.00;;;;;;;20.51;56.23;100743.06;5039055;28;20967;-64
2023/08/31 09:50:39;;;;;;;12.18;3.53;;;;;;;20.57;56.43;100746.34;5039701;28;20404;-64
2023/08/31 09:53:08;;;;;;;12.23;3.30;;;;;;;20.42;56.67;100741.72;5039687;28;20058;-63
2023/08/31 09:55:39;;;;;;;12.27;3.65;;;;;;;20.33;56.61;100756.00;5041225;28;20055;-67
2023/08/31 09:58:07;;;;;;;13.20;3.63;;;;;;;20.57;56.50;100752.75;5038832;28;20053;-64
2023/08/31 10:00:43;;;;;;;11.73;3.50;;;;;;;20.45;56.78;100744.56;5022222;28;20041;-65
2023/08/31 10:03:15;;;;;;;13.93;3.42;;;;;;;20.62;56.39;100749.63;5038841;28;20045;-64
2023/08/31 10:05:47;;;;;;;12.95;3.38;;;;;;;20.53;56.79;100742.69;5022196;28;20413;-64
2023/08/31 10:08:19;;;;;;;13.35;3.67;;;;;;;20.59;55.88;100746.78;5043801;28;20578;-65
2023/08/31 10:10:47;;;;;;;21.95;9.25;;;;;;;20.65;56.17;100742.44;5018841;28;20140;-65
2023/08/31 10:13:15;;;;;;;31.30;13.70;;;;;;;20.61;56.89;100736.78;5039011;28;20045;-63
2023/08/31 10:15:45;;;;;;;46.00;23.13;;;;;;;20.57;57.86;100729.53;5040348;28;20045;-64
2023/08/31 10:18:12;;;;;;;32.58;14.93;;;;;;;20.53;58.68;100728.69;5041997;28;20049;-63
2023/08/31 10:20:42;;;;;;;18.98;8.32;;;;;;;20.65;58.15;100726.47;5040058;28;20048;-65
2023/08/31 10:23:10;;;;;;;20.42;6.03;;;;;;;20.71;58.78;100735.31;5043694;28;20056;-66
2023/08/31 10:25:50;;;;;;;57.33;42.30;;;;;;;20.70;59.05;100733.69;5042647;28;20037;-64
2023/08/31 10:28:23;;;;;;;47.58;32.22;;;;;;;20.77;58.18;100731.00;5040080;28;20053;-63
2023/08/31 10:31:05;;;;;;;35.95;23.38;;;;;;;20.84;58.27;100725.47;5037940;28;20045;-64
2023/08/31 10:33:40;;;;;;;30.25;17.63;;;;;;;20.85;59.08;100727.09;5037400;28;20071;-63
2023/08/31 10:36:19;;;;;;;17.23;8.52;;;;;;;20.66;59.27;100724.47;5039857;28;20048;-63
2023/08/31 10:38:59;;;;;;;15.82;6.50;;;;;;;20.82;58.13;100723.06;5037935;28;20049;-63
2023/08/31 10:41:33;;;;;;;17.95;6.85;;;;;;;20.75;57.97;100725.78;5042104;28;20037;-63
2023/08/31 10:44:18;;;;;;;44.47;20.42;;;;;;;20.74;57.46;100724.19;5040717;28;20052;-64
2023/08/31 10:46:45;;;;;;;33.67;14.55;;;;;;;20.57;57.82;100726.75;5038279;28;20060;-62
2023/08/31 10:49:19;;;;;;;26.85;10.38;;;;;;;20.65;57.57;100731.25;5043615;28;20049;-63
2023/08/31 10:51:49;;;;;;;21.60;9.10;;;;;;;20.61;57.35;100730.38;5042884;28;20049;-63
2023/08/31 10:54:25;;;;;;;16.27;7.32;;;;;;;20.66;57.34;100725.25;5040281;28;20060;-63
2023/08/31 10:57:00;;;;;;;15.27;6.00;;;;;;;20.57;57.18;100718.34;5041097;28;20037;-63
2023/08/31 10:59:43;;;;;;;16.17;6.68;;;;;;;20.60;57.28;100720.38;5043616;28;20075;-64
2023/08/31 11:02:28;;;;;;;14.43;5.88;;;;;;;20.74;56.45;100712.16;5039943;28;20484;-65
2023/08/31 11:05:17;;;;;;;19.50;5.38;;;;;;;20.49;57.03;100709.06;5040229;28;20076;-63
2023/08/31 11:07:47;;;;;;;13.15;3.78;;;;;;;20.67;56.42;100715.69;5040210;28;21947;-63
2023/08/31 11:10:23;;;;;;;13.93;4.13;;;;;;;20.71;56.19;100713.72;5044696;28;20068;-64
2023/08/31 11:12:54;;;;;;;13.73;4.05;;;;;;;20.75;56.69;100711.78;5042853;28;20083;-62
2023/08/31 11:15:34;;;;;;;17.17;4.45;;;;;;;20.77;56.12;100703.81;5046620;28;20052;-62
2023/08/31 11:18:01;;;;;;;;;;;;;;;20.68;56.23;100706.09;5047458;28;20049;-62
2023/08/31 11:20:31;;;;;;;26.88;11.05;;;;;;;20.64;56.06;100691.25;5046298;28;19925;-62
2023/08/31 11:22:58;;;;;;;23.13;12.02;;;;;;;20.73;55.98;100690.97;5039382;28;20063;-63
2023/08/31 11:25:26;;;;;;;19.23;8.10;;;;;;;20.81;55.83;100682.25;5041571;28;20048;-63